Terminal Aerodrome Forecast
Issued by NWS

Home | Current Version | Previous Version | Text Only | Print | Product List | Glossary On
Versions: 1 2 3 4 5 6 7 8 9 10 11 12 13
071
FTUS44 KLUB 211751
TAFCDS
TAF
KCDS 211751Z 2118/2218 19011KT P6SM BKN090
     FM211900 23020G30KT P6SM BKN060 BKN100
     FM220600 32020G30KT P6SM BKN040 OVC100=

USA.gov is the U.S. government's official web portal to all federal, state and local government web resources and services.